TAF KPTK
KPTK 280540Z 2806/2906 30006KT 6SM BR SCT006 BKN012 OVC022 TEMPO 2806/2808 5SM BR BKN006 OVC012 FM281400 24007KT 3SM -SHSN BKN014 OVC035 FM281700 29015G24KT P6SM -SHSN BKN028 OVC060 FM290200 31012G20KT P6SM SCT040 BKN060=
METAR KPTK
WC KPTK
WS KPTK
WV KPTK